Leduc, Canada
Current Conditions -  °F | °C
As of 11:00 AM on Tuesday 21 Oct 2014 (Local Time) from CYEG Reporting Station
Broken Clouds Broken Clouds  
Wind Chill: 45°   Ceiling: 27000
Heat Index: 48°   Visibility: 15mi
Dew Point: 41°   Wind: 7mph
Humidity: 76%   Direction: 300°WNW
Pressure: 29.63"   Gusts: NA
Location:  53.27°N, 113.53°W
Report Text: CYEG 211700Z 30006KT 15SM FEW080 FEW120 FEW150 SCT220 BKN270 09/05 A2963 RMK AC1AC1AC1CI2CI3 AC TR SLP052 DENSITY ALT 2500FT
Loading
Personal Weather Stations






























Interactive Weather Map
Tropical Storm Tracking
New forecast layout! Learn more

10-Day Weather Forecast

Advertisements
Track Severe Weather on mobile